Tiempo atmosférico en la estación meteorológica de Arico, Santa Cruz de Tenerife (418 m.)



Fecha
DESCASC
Temp. máxima en grados centígrados (hora)
DESCASC
Temp. mínima en grados centígrados (hora)
DESCASC
Temp. media en grados centígrados
DESCASC
Racha de viento máxima en m/sg (hora)
DESCASC
Velocidad máxima media en intervalos de 10 minutos(hora)
DESCASC
Precipitaciones diarias en mm
DESCASC
Precipitaciones de 00:00 a 06:00 en mm
DESCASC
Precipitaciones de 06:00 a 12:00 en mm
DESCASC
Precipitaciones de 12:00 a 18:00 en mm
DESCASC
Precipitaciones de 18:00 a 24:00 en mm
DESCASC
23-05-2018 16.8 (10:20) 13.9 (07:20) 15.3 6.39 (11:20) 3.89 (11:30) 3.6 0.4 2.4 0.8 0
22-05-2018 23 (14:40) 12.3 (06:10) 17.7 10 (14:20) 6.11 (15:10) 0 0 0 0 0
21-05-2018 18.7 (15:50) 13.1 (07:40) 15.9 6.67 (22:50) 4.72 (22:50) 0 0 0 0 0
20-05-2018 20 (10:50) 13 (00:00) 16.5 8.61 (11:20) 5.56 (11:20) 0 0 0 0 0
19-05-2018 18.5 (10:20) 12.5 (05:10) 15.5 9.44 (12:50) 5.28 (14:00) 0 0 0 0 0
18-05-2018 19 (15:00) 12.9 (00:00) 15.9 8.89 (15:50) 6.11 (18:30) 0 0 0 0 0
17-05-2018 20 (12:00) 12.9 (00:00) 16.4 8.61 (14:20) 5.28 (13:50) 0 0 0 0 0
16-05-2018 20.1 (16:50) 14 (00:00) 17.1 10.83 (13:50) 5.28 (06:50) 0 0 0 0 0
15-05-2018 20.6 (16:40) 12.4 (00:00) 16.5 14.44 (16:50) 8.33 (11:50) 0 0 0 0 0
14-05-2018 19.8 (15:10) 12 (00:00) 15.9 13.33 (13:10) 8.61 (13:00) 0 0 0 0 0
13-05-2018 18.9 (14:20) 12.8 (00:00) 15.8 15.83 (16:30) 10.28 (13:10) 0 0 0 0 0
12-05-2018 20.2 (15:50) 13.8 (00:00) 17 17.78 (13:10) 11.39 (13:10) 0 0 0 0 0
11-05-2018 19.4 (13:20) 12 (07:20) 15.7 14.17 (12:10) 9.17 (12:40) 0 0 0 0 0
10-05-2018 21.1 (13:40) 13.4 (00:00) 17.3 14.17 (10:30) 9.17 (12:20) 0 0 0 0 0
09-05-2018 20.4 (12:20) 12.8 (00:00) 16.6 16.67 (12:50) 8.61 (14:20) 0 0 0 0 0
08-05-2018 18.3 (10:00) 12.7 (00:00) 15.5 7.78 (13:40) 5 (19:50) 0 0 0 0 0
07-05-2018 17.5 (10:50) 12.5 (00:00) 15 6.39 (19:10) 5.28 (19:10) 0 0 0 0 0
06-05-2018 15.6 (12:40) 12.1 (00:00) 13.9 5.56 (00:50) 4.17 (00:30) 0 0 0 0 0
05-05-2018 16.5 (14:10) 13.2 (00:00) 14.8 6.67 (01:10) 3.89 (09:50) 0 0 0 0 0
04-05-2018 19.5 (12:10) 12.3 (00:00) 15.9 12.22 (11:10) 7.5 (12:40) 0 0 0 0 0
03-05-2018 18.4 (11:00) 12.1 (00:00) 15.3 7.78 (18:20) 4.44 (17:20) 0 0 0 0 0
02-05-2018 18.3 (11:10) 12.6 (00:00) 15.4 7.22 (10:30) 5.28 (09:20) 1 0 0 1 0
01-05-2018 18.7 (14:50) 11.4 (07:20) 15.1 8.06 (13:00) 4.72 (15:20) 0 0 0 0 0
30-04-2018 18.3 (13:00) 10.8 (00:00) 14.5 10.83 (12:20) 6.67 (12:00) 0 0 0 0 0
29-04-2018 18.7 (14:00) 11.6 (00:00) 15.2 13.61 (12:50) 9.17 (12:50) 0 0 0 0 0
28-04-2018 21.2 (12:00) 12.9 (00:00) 17.1 10.56 (23:50) 6.11 (23:59) 0 0 0 0 0

Gráficas

Temp. máximas Temp. mínimas Temp. medias Precipitaciones Rachas de viento máximas Velocidades máximas media en intervalos de 10 minutos

Datos horarios

Fecha y hora oficial Temperatura (ºC) Velocidad del viento (km/h) Dirección del viento Racha (km/h) Dirección de racha Precipitación (mm) Presión (hPa) Tendencia (hPa) Humedad (%)
2018-05-27 23:00:00 -- -- -- -- -- -- -- -- --
2018-05-27 22:00:00 14.7 2 Oeste 5 Oeste 0 -- -- 75
2018-05-27 21:00:00 15.6 4 Este 20 Este 0 -- -- 71
2018-05-27 20:00:00 16.7 9 Este 35 Este 0 -- -- 68
2018-05-27 19:00:00 16.5 13 Este 28 Este 0 -- -- 68
2018-05-27 18:00:00 16.2 13 Este 23 Nordeste 0 -- -- 74
2018-05-27 17:00:00 16.2 13 Este 29 Este 0 -- -- 72
2018-05-27 16:00:00 17.3 13 Nordeste 25 Este 0 -- -- 70
2018-05-27 15:00:00 16.8 14 Sudeste 24 Sudeste 0 -- -- 73
2018-05-27 14:00:00 17.3 10 Nordeste 23 Este 0 -- -- 68
2018-05-27 13:00:00 17.6 15 Este 26 Sudeste 0 -- -- 66
2018-05-27 12:00:00 17.6 16 Este 26 Este 0 -- -- 66
2018-05-27 11:00:00 17.9 4 Este 14 Nordeste 0 -- -- 60
2018-05-27 10:00:00 16 4 Este 10 Nordeste 0 -- -- 70
2018-05-27 09:00:00 15.5 3 Este 6 Sur 0 -- -- 72
2018-05-27 08:00:00 14.9 2 Sudoeste 14 Oeste 0 -- -- 71
2018-05-27 07:00:00 14.5 12 Oeste 17 Oeste 0 -- -- 73
2018-05-27 06:00:00 14.4 6 Oeste 16 Oeste 0 -- -- 72
2018-05-27 05:00:00 14.3 13 Oeste 18 Oeste 0 -- -- 71
2018-05-27 04:00:00 14.1 9 Noroeste 14 Noroeste 0 -- -- 73
2018-05-27 03:00:00 13.5 9 Noroeste 13 Noroeste 0 -- -- 76
2018-05-27 02:00:00 14.2 7 Oeste 8 Oeste 0 -- -- 77
2018-05-27 01:00:00 15.1 4 Sudoeste 8 Sudoeste 0 -- -- 73
2018-05-27 00:00:00 15 5 Sudoeste 8 Sudoeste 0 -- -- 74
2018-05-26 23:00:00 15.9 6 Sudoeste 10 Sudoeste 0 -- -- 70
2018-05-26 22:00:00 16 8 Sur 19 Sudoeste 0 -- -- 68
2018-05-26 21:00:00 16.6 16 Sudoeste 23 Sudoeste 0 -- -- 64
2018-05-26 20:00:00 17.2 14 Sur 30 Sudoeste 0 -- -- 65
2018-05-26 19:00:00 18.1 9 Sur 22 Sudeste 0 -- -- 62
2018-05-26 18:00:00 19.4 15 Sur 31 Sur 0 -- -- 57
2018-05-26 17:00:00 18.7 12 Sudoeste 21 Sudoeste 0 -- -- 60
2018-05-26 16:00:00 18.2 9 Este 26 Este 0 -- -- 63
2018-05-26 15:00:00 17.8 15 Este 40 Este 0 -- -- 60
2018-05-26 14:00:00 19.4 21 Este 37 Nordeste 0 -- -- 50
2018-05-26 13:00:00 18.9 5 Oeste 22 Sudeste 0 -- -- 54
2018-05-26 12:00:00 19 14 Este 35 Este 0 -- -- 53
2018-05-26 11:00:00 18 15 Nordeste 29 Nordeste 0 -- -- 57
2018-05-26 10:00:00 18 6 Sur 17 Sur 0 -- -- 63
2018-05-26 09:00:00 16.9 6 Sudeste 11 Sudeste 0 -- -- 68
2018-05-26 08:00:00 15.2 6 Noroeste 10 Noroeste 0 -- -- 73
2018-05-26 07:00:00 14 3 Noroeste 15 Noroeste 0 -- -- 77
2018-05-26 06:00:00 13.6 10 Noroeste 13 Noroeste 0 -- -- 79
2018-05-26 05:00:00 13.4 5 Noroeste 9 Norte 0 -- -- 81
2018-05-26 04:00:00 14.2 5 Norte 16 Oeste 0 -- -- 80
2018-05-26 03:00:00 14.5 13 Oeste 16 Oeste 0 -- -- 82
2018-05-26 02:00:00 14.5 4 Norte 9 Norte 0 -- -- 80
2018-05-26 01:00:00 14.5 5 Noroeste 12 Oeste 0 -- -- 79
2018-05-26 00:00:00 14.4 5 Noroeste 9 Noroeste 0 -- -- 80
2018-05-25 23:00:00 14.5 4 Norte 9 Noroeste 0 -- -- 79
2018-05-25 22:00:00 15.7 7 Sudoeste 23 Sudoeste 0 -- -- 73
2018-05-25 21:00:00 16.5 15 Sudoeste 23 Sudoeste 0 -- -- 72
2018-05-25 20:00:00 16.6 8 Sudoeste 28 Oeste 0 -- -- 73
2018-05-25 19:00:00 17.3 17 Oeste 24 Oeste 0 -- -- 69
2018-05-25 18:00:00 18 8 Sudeste 21 Este 0 -- -- 68
2018-05-25 17:00:00 18.4 11 Este 27 Este 0 -- -- 65
2018-05-25 16:00:00 18.4 16 Este 39 Nordeste 0 -- -- 64
2018-05-25 15:00:00 19 16 Este 31 Sudeste 0 -- -- 58
2018-05-25 14:00:00 18 13 Este 21 Nordeste 0 -- -- 66
2018-05-25 13:00:00 17.6 11 Nordeste 27 Este 0 -- -- 68
2018-05-25 12:00:00 18.4 16 Este 29 Nordeste 0 -- -- 65
2018-05-25 11:00:00 17.8 15 Nordeste 26 Este 0 -- -- 65
2018-05-25 10:00:00 19 8 Sudeste 15 Sudeste 0 -- -- 60
2018-05-25 09:00:00 15.8 3 Oeste 8 Noroeste 0 -- -- 69
2018-05-25 08:00:00 14.9 6 Noroeste 12 Oeste 0 -- -- 67
2018-05-25 07:00:00 14 8 Noroeste 11 Noroeste 0 -- -- 79
2018-05-25 06:00:00 13.9 9 Noroeste 14 Noroeste 0 -- -- 70
2018-05-25 05:00:00 13.6 6 Noroeste 12 Noroeste 0 -- -- 75
2018-05-25 04:00:00 13.3 7 Norte 14 Noroeste 0 -- -- 78
2018-05-25 03:00:00 13.2 10 Noroeste 12 Noroeste 0 -- -- 76
2018-05-25 02:00:00 13.4 9 Noroeste 12 Noroeste 0 -- -- 78
2018-05-25 01:00:00 14.3 2 Sudoeste 9 Noroeste 0 -- -- 75
2018-05-25 00:00:00 14.5 7 Noroeste 12 Noroeste 0 -- -- 74
2018-05-24 23:00:00 15.1 8 Oeste 9 Sudoeste 0 -- -- 78
2018-05-24 22:00:00 16 5 Sudoeste 9 Sur 0 -- -- 75
2018-05-24 21:00:00 16.4 4 Sudeste 8 Sudeste 0 -- -- 74
2018-05-24 20:00:00 17.1 4 Sudeste 14 Este 0 -- -- 68
2018-05-24 19:00:00 18.3 10 Este 21 Este 0 -- -- 56
2018-05-24 18:00:00 19.1 6 Este 19 Este 0 -- -- 60
2018-05-24 17:00:00 19.2 13 Este 26 Sudeste 0 -- -- 60
2018-05-24 16:00:00 20.7 13 Sudoeste 26 Sudoeste 0 -- -- 57
2018-05-24 15:00:00 19 13 Sudoeste 23 Oeste 0 -- -- 61
2018-05-24 14:00:00 17.3 9 Sudoeste 15 Sudoeste 0 -- -- 69
2018-05-24 13:00:00 16.8 6 Sudeste 15 Sudeste 0 -- -- 70
2018-05-24 12:00:00 17.1 10 Sudeste 18 Sur 0 -- -- 64
2018-05-24 11:00:00 18 13 Sudeste 20 Sudeste 0 -- -- 63
2018-05-24 10:00:00 17.5 4 Sudeste 8 Sudeste 0 -- -- 66
2018-05-24 09:00:00 15.5 3 Sudeste 9 Noroeste 0 -- -- 68
2018-05-24 08:00:00 13.7 7 Noroeste 10 Noroeste 0 -- -- 73
2018-05-24 07:00:00 13.5 3 Oeste 6 Este 0 -- -- 77
2018-05-24 06:00:00 13.8 4 Norte 12 Noroeste 0 -- -- 75
2018-05-24 05:00:00 13.9 10 Noroeste 17 Oeste 0 -- -- 73
2018-05-24 04:00:00 13.1 13 Noroeste 19 Noroeste 0 -- -- 75
2018-05-24 03:00:00 12.8 10 Oeste 17 Oeste 0 -- -- 82
2018-05-24 02:00:00 13.1 9 Noroeste 16 Noroeste 0 -- -- 81
2018-05-24 01:00:00 13.7 12 Oeste 15 Oeste 0 -- -- 84
2018-05-24 00:00:00 14.3 10 Oeste 14 Oeste 0 -- -- 85
2018-05-23 23:00:00 14.6 8 Oeste 12 Noroeste 0 -- -- 85
2018-05-23 22:00:00 14.6 7 Noroeste 10 Noroeste 0 -- -- 86
2018-05-23 21:00:00 14.9 6 Norte 10 Norte 0 -- -- 86
2018-05-23 20:00:00 15.5 4 Sudeste 9 Este 0 -- -- 82
2018-05-23 19:00:00 15.7 4 Sudeste 11 Sudeste 0 -- -- 80
2018-05-23 18:00:00 15.7 3 Oeste 8 Oeste 0 -- -- 83
2018-05-23 17:00:00 15.2 5 Oeste 9 Oeste 0 -- -- 87
2018-05-23 16:00:00 15.2 4 Noroeste 10 Este 0.2 -- -- 86
2018-05-23 15:00:00 15.7 4 Sudeste 9 Este 0 -- -- 86
2018-05-23 14:00:00 15.5 2 Nordeste 8 Este 0.2 -- -- 86
2018-05-23 13:00:00 14.8 3 Este 16 Nordeste 0.4 -- -- 89
2018-05-23 12:00:00 14.9 6 Nordeste 23 Este 0 -- -- 86
2018-05-23 11:00:00 16.4 9 Sudeste 19 Sudeste 0 -- -- 80
2018-05-23 10:00:00 16 9 Sur 13 Sudoeste 0 -- -- 86
2018-05-23 09:00:00 14.5 8 Sur 13 Sur 0 -- -- 90
2018-05-23 08:00:00 14.1 3 Sur 11 Nordeste 0.2 -- -- 91
2018-05-23 07:00:00 14.2 5 Noroeste 16 Este 2.2 -- -- 91
2018-05-23 06:00:00 14.8 7 Este 15 Este 0.4 -- -- 93
2018-05-23 05:00:00 15.3 3 Este 6 Este 0 -- -- 89
2018-05-23 04:00:00 15.5 5 Sudeste 13 Oeste 0 -- -- 86
2018-05-23 03:00:00 15.5 7 Sudoeste 12 Sudoeste 0 -- -- 79
2018-05-23 02:00:00 15.8 7 Sudoeste 14 Sudoeste 0 -- -- 83
2018-05-23 01:00:00 16.2 4 Sur 10 Sur 0 -- -- 89
2018-05-23 00:00:00 16.3 4 Sudeste 7 Sudeste 0 -- -- 89
2018-05-22 23:00:00 15.9 4 Noroeste 8 Este 0 -- -- 82
2018-05-22 22:00:00 16.2 6 Este 11 Este 0 -- -- 87
2018-05-22 21:00:00 17.3 7 Este 11 Este 0 -- -- 69
2018-05-22 20:00:00 18 8 Este 18 Este 0 -- -- 66
2018-05-22 19:00:00 19.1 10 Este 19 Nordeste 0 -- -- 60
2018-05-22 18:00:00 19.6 13 Nordeste 24 Nordeste 0 -- -- 59
2018-05-22 17:00:00 20.4 9 Sudeste 26 Sur 0 -- -- 66
2018-05-22 16:00:00 22.9 15 Sur 34 Sur 0 -- -- 56
2018-05-22 15:00:00 22.4 21 Sur 36 Sur 0 -- -- 49
2018-05-22 14:00:00 22.4 19 Sur 33 Sudeste 0 -- -- 51
2018-05-22 13:00:00 21.5 17 Sudeste 31 Sudeste 0 -- -- 53
2018-05-22 12:00:00 21.5 15 Sur 28 Sudoeste 0 -- -- 53
2018-05-22 11:00:00 19.8 12 Sur 19 Sur 0 -- -- 55
2018-05-22 10:00:00 18.2 10 Sudoeste 17 Sur 0 -- -- 58
2018-05-22 09:00:00 16.5 8 Sudoeste 12 Sur 0 -- -- 66
2018-05-22 08:00:00 13.6 8 Noroeste 15 Noroeste 0 -- -- 70
2018-05-22 07:00:00 12.7 10 Noroeste 14 Noroeste 0 -- -- 73
2018-05-22 06:00:00 12.4 10 Noroeste 19 Noroeste 0 -- -- 76
2018-05-22 05:00:00 12.6 7 Noroeste 15 Noroeste 0 -- -- 73
2018-05-22 04:00:00 13.1 10 Noroeste 18 Noroeste 0 -- -- 73
2018-05-22 03:00:00 13 10 Noroeste 14 Noroeste 0 -- -- 75
2018-05-22 02:00:00 13.4 10 Noroeste 15 Noroeste 0 -- -- 74
2018-05-22 01:00:00 13.6 9 Noroeste 14 Noroeste 0 -- -- 73
2018-05-22 00:00:00 13.4 8 Noroeste 16 Oeste 0 -- -- 76
2018-05-21 23:00:00 13.8 16 Oeste 24 Oeste 0 -- -- 77
2018-05-21 22:00:00 14.2 13 Sudoeste 19 Sudoeste 0 -- -- 83
2018-05-21 21:00:00 15.2 11 Sudoeste 19 Sudoeste 0 -- -- 81
2018-05-21 20:00:00 16.4 10 Sur 17 Sur 0 -- -- 73
2018-05-21 19:00:00 16.6 5 Sur 12 Sur 0 -- -- 70
2018-05-21 18:00:00 17.1 4 Sudeste 22 Sudoeste 0 -- -- 67
2018-05-21 17:00:00 18.2 13 Sur 22 Sur 0 -- -- 61
2018-05-21 16:00:00 18.5 11 Sudoeste 20 Sur 0 -- -- 59
2018-05-21 15:00:00 17.9 10 Sudeste 23 Sudeste 0 -- -- 61
2018-05-21 14:00:00 17.6 8 Sudeste 15 Sudeste 0 -- -- 60
2018-05-21 13:00:00 17 6 Sudeste 18 Sudeste 0 -- -- 62
2018-05-21 12:00:00 17.3 7 Este 17 Sudeste 0 -- -- 63
2018-05-21 11:00:00 17.6 7 Sudeste 17 Nordeste 0 -- -- 64
2018-05-21 10:00:00 18.3 8 Este 21 Sudeste 0 -- -- 63
2018-05-21 09:00:00 14.4 3 Nordeste 7 Noroeste 0 -- -- 72
2018-05-21 08:00:00 13.1 3 Norte 8 Noroeste 0 -- -- 64
2018-05-21 07:00:00 13.9 3 Sudoeste 14 Sudoeste 0 -- -- 65
2018-05-21 06:00:00 14.3 2 Noroeste 10 Noroeste 0 -- -- 66
2018-05-21 05:00:00 14.7 6 Oeste 14 Oeste 0 -- -- 64
2018-05-21 04:00:00 14.9 3 Nordeste 11 Nordeste 0 -- -- 76
2018-05-21 03:00:00 14.9 4 Norte 13 Noroeste 0 -- -- 70
2018-05-21 02:00:00 14.9 9 Noroeste 14 Noroeste 0 -- -- 65
2018-05-21 01:00:00 15.2 3 Sur 13 Sudoeste 0 -- -- 72
2018-05-21 00:00:00 15.3 0 Calma 10 Sudoeste 0 -- -- 69
2018-05-20 23:00:00 15.4 10 Sudoeste 20 Sudoeste 0 -- -- 69
2018-05-20 22:00:00 15.5 15 Sudoeste 24 Sudoeste 0 -- -- 71
2018-05-20 21:00:00 15.8 10 Sudoeste 23 Sudoeste 0 -- -- 69
2018-05-20 20:00:00 16.3 12 Sudoeste 22 Sudoeste 0 -- -- 66
2018-05-20 19:00:00 16.8 13 Sudoeste 18 Sudoeste 0 -- -- 63
2018-05-20 18:00:00 17.2 9 Sudeste 17 Sudeste 0 -- -- 64
2018-05-20 17:00:00 17.5 7 Este 21 Sudeste 0 -- -- 61
2018-05-20 16:00:00 17.1 12 Nordeste 22 Este 0 -- -- 63
2018-05-20 15:00:00 16.7 14 Nordeste 26 Este 0 -- -- 66
2018-05-20 14:00:00 16.5 13 Nordeste 24 Este 0 -- -- 66
2018-05-20 13:00:00 16.5 14 Nordeste 27 Este 0 -- -- 72
2018-05-20 12:00:00 17.2 17 Nordeste 31 Este 0 -- -- 67
2018-05-20 11:00:00 19 17 Este 27 Este 0 -- -- 60
2018-05-20 10:00:00 18.3 4 Sudoeste 16 Sudoeste 0 -- -- 48
2018-05-20 09:00:00 17 7 Oeste 23 Oeste 0 -- -- 53
2018-05-20 08:00:00 14.8 14 Oeste 21 Sudoeste 0 -- -- 63
2018-05-20 07:00:00 14 11 Oeste 15 Oeste 0 -- -- 69
2018-05-20 06:00:00 13.8 3 Noroeste 15 Noroeste 0 -- -- 69
2018-05-20 05:00:00 13.3 13 Noroeste 19 Noroeste 0 -- -- 64
2018-05-20 04:00:00 13.2 12 Noroeste 15 Noroeste 0 -- -- 71
2018-05-20 03:00:00 14 3 Oeste 14 Oeste 0 -- -- 71
2018-05-20 02:00:00 13.8 9 Noroeste 16 Oeste 0 -- -- 69
2018-05-20 01:00:00 13.7 12 Oeste 19 Oeste 0 -- -- 74
2018-05-20 00:00:00 14.6 14 Oeste 20 Oeste 0 -- -- 77
2018-05-19 23:00:00 14.3 12 Oeste 16 Oeste 0 -- -- 79
2018-05-19 22:00:00 14.2 6 Sudoeste 13 Oeste 0 -- -- 79
2018-05-19 21:00:00 15.3 4 Sudoeste 21 Este 0 -- -- 76
2018-05-19 20:00:00 15.9 12 Nordeste 24 Este 0 -- -- 75
2018-05-19 19:00:00 16.3 15 Nordeste 29 Nordeste 0 -- -- 77
2018-05-19 18:00:00 17.2 15 Nordeste 27 Nordeste 0 -- -- 68
2018-05-19 17:00:00 17 13 Este 26 Nordeste 0 -- -- 74
2018-05-19 16:00:00 16.7 18 Nordeste 31 Nordeste 0 -- -- 73
2018-05-19 15:00:00 16.7 16 Nordeste 25 Este 0 -- -- 75
2018-05-19 14:00:00 16.5 19 Nordeste 26 Nordeste 0 -- -- 73
2018-05-19 13:00:00 16.6 14 Este 34 Este 0 -- -- 75
2018-05-19 12:00:00 18 17 Nordeste 28 Este 0 -- -- 67
2018-05-19 11:00:00 17.3 16 Nordeste 27 Nordeste 0 -- -- 68
2018-05-19 10:00:00 17.7 7 Sur 13 Sudeste 0 -- -- 66
2018-05-19 09:00:00 16.3 8 Sudoeste 22 Oeste 0 -- -- 68
2018-05-19 08:00:00 14.1 15 Oeste 25 Oeste 0 -- -- 77
2018-05-19 07:00:00 12.6 13 Oeste 19 Oeste 0 -- -- 78
2018-05-19 06:00:00 12.7 14 Oeste 19 Sudoeste 0 -- -- 75
2018-05-19 05:00:00 12.6 7 Oeste 21 Oeste 0 -- -- 78
2018-05-19 04:00:00 13.1 16 Oeste 24 Oeste 0 -- -- 78
2018-05-19 03:00:00 13 15 Oeste 20 Oeste 0 -- -- 79
2018-05-19 02:00:00 12.9 8 Oeste 12 Oeste 0 -- -- 82
2018-05-19 01:00:00 13.4 9 Noroeste 13 Oeste 0 -- -- 78
2018-05-19 00:00:00 13.6 7 Norte 13 Noroeste 0 -- -- 80
2018-05-18 23:00:00 13.9 7 Noroeste 13 Noroeste 0 -- -- 82
2018-05-18 22:00:00 13.6 6 Noroeste 13 Norte 0 -- -- 78
2018-05-18 21:00:00 14.6 6 Nordeste 18 Nordeste 0 -- -- 79
2018-05-18 20:00:00 15.7 13 Nordeste 24 Este 0 -- -- 73
2018-05-18 19:00:00 16.8 15 Nordeste 30 Este 0 -- -- 70
2018-05-18 18:00:00 17.7 17 Este 28 Este 0 -- -- 65
2018-05-18 17:00:00 18.3 17 Este 27 Este 0 -- -- 58
2018-05-18 16:00:00 17.4 19 Este 32 Nordeste 0 -- -- 64
2018-05-18 15:00:00 19 16 Este 28 Nordeste 0 -- -- 57
2018-05-18 14:00:00 17.5 15 Nordeste 26 Nordeste 0 -- -- 59
2018-05-18 13:00:00 17.6 10 Sudoeste 16 Sudoeste 0 -- -- 61
2018-05-18 12:00:00 16.7 5 Sudeste 16 Sudeste 0 -- -- 65
2018-05-18 11:00:00 17.4 7 Sur 22 Sudoeste 0 -- -- 65
2018-05-18 10:00:00 17 9 Sur 22 Sur 0 -- -- 67
2018-05-18 09:00:00 15.8 11 Sudoeste 23 Sudoeste 0 -- -- 70
2018-05-18 08:00:00 13.9 9 Oeste 14 Oeste 0 -- -- 75
2018-05-18 07:00:00 13.6 6 Noroeste 25 Sudoeste 0 -- -- 77
2018-05-18 06:00:00 14.3 14 Sudoeste 26 Sudoeste 0 -- -- 77
2018-05-18 05:00:00 14 8 Oeste 13 Oeste 0 -- -- 78
2018-05-18 04:00:00 13.3 9 Noroeste 15 Noroeste 0 -- -- 78
2018-05-18 03:00:00 13.3 8 Oeste 14 Oeste 0 -- -- 80
2018-05-18 02:00:00 13.7 11 Oeste 15 Oeste 0 -- -- 80
2018-05-18 01:00:00 13.5 5 Noroeste 15 Sudoeste 0 -- -- 76
2018-05-18 00:00:00 14.1 12 Oeste 18 Oeste 0 -- -- 81
2018-05-17 23:00:00 14.6 10 Sudoeste 18 Sudoeste 0 -- -- 80
2018-05-17 22:00:00 15 4 Noroeste 15 Sudoeste 0 -- -- 78
2018-05-17 21:00:00 15.8 5 Sudoeste 13 Sudeste 0 -- -- 77
2018-05-17 20:00:00 16.6 8 Sudeste 24 Sudeste 0 -- -- 74
2018-05-17 19:00:00 16.8 13 Este 25 Este 0 -- -- 72
2018-05-17 18:00:00 17.8 14 Este 27 Este 0 -- -- 67
2018-05-17 17:00:00 18 14 Nordeste 24 Este 0 -- -- 67
2018-05-17 16:00:00 18 15 Nordeste 24 Este 0 -- -- 66
2018-05-17 15:00:00 17.7 17 Este 31 Este 0 -- -- 67
2018-05-17 14:00:00 18.8 17 Este 30 Nordeste 0 -- -- 65
2018-05-17 13:00:00 18.9 9 Sudeste 25 Sudeste 0 -- -- 62
2018-05-17 12:00:00 20 12 Sur 25 Sur 0 -- -- 56
2018-05-17 11:00:00 19.5 13 Sur 27 Sur 0 -- -- 57
2018-05-17 10:00:00 18.3 8 Sudeste 15 Sudeste 0 -- -- 61
2018-05-17 09:00:00 16.5 9 Sur 15 Oeste 0 -- -- 65
2018-05-17 08:00:00 14.3 11 Oeste 21 Oeste 0 -- -- 68
2018-05-17 07:00:00 13.4 13 Oeste 17 Oeste 0 -- -- 72
2018-05-17 06:00:00 13 12 Oeste 17 Oeste 0 -- -- 73
2018-05-17 05:00:00 13 11 Oeste 15 Oeste 0 -- -- 76
2018-05-17 04:00:00 13.3 10 Oeste 14 Oeste 0 -- -- 77
2018-05-17 03:00:00 13.6 8 Oeste 13 Oeste 0 -- -- 77
2018-05-17 02:00:00 14.1 10 Oeste 17 Oeste 0 -- -- 77
2018-05-17 01:00:00 14.1 13 Oeste 17 Oeste 0 -- -- 77
2018-05-17 00:00:00 14.6 10 Oeste 15 Oeste 0 -- -- 79
2018-05-16 23:00:00 15.2 12 Sudoeste 17 Oeste 0 -- -- 76
2018-05-16 22:00:00 15.3 9 Oeste 14 Oeste 0 -- -- 75
2018-05-16 21:00:00 16.1 10 Sur 24 Sudoeste 0 -- -- 72
2018-05-16 20:00:00 17.1 7 Sur 18 Sudeste 0 -- -- 67
2018-05-16 19:00:00 17.9 7 Este 23 Este 0 -- -- 62
2018-05-16 18:00:00 19.1 10 Este 21 Este 0 -- -- 58
2018-05-16 17:00:00 20 9 Este 23 Sudeste 0 -- -- 57
2018-05-16 16:00:00 19.7 11 Sur 18 Sudeste 0 -- -- 58
2018-05-16 15:00:00 18.7 7 Sur 23 Sudoeste 0 -- -- 62
2018-05-16 14:00:00 18.6 18 Sudoeste 39 Sudoeste 0 -- -- 63
2018-05-16 13:00:00 18 14 Sur 25 Sudoeste 0 -- -- 66
2018-05-16 12:00:00 18.2 10 Sudeste 19 Sudeste 0 -- -- 65
2018-05-16 11:00:00 18.4 9 Sudoeste 15 Sur 0 -- -- 63
2018-05-16 10:00:00 18.1 10 Sur 18 Sur 0 -- -- 64
2018-05-16 09:00:00 16.8 7 Sur 13 Sudoeste 0 -- -- 67
2018-05-16 08:00:00 14.7 9 Oeste 21 Oeste 0 -- -- 70
2018-05-16 07:00:00 14 18 Oeste 23 Oeste 0 -- -- 71
2018-05-16 06:00:00 14.5 10 Oeste 14 Oeste 0 -- -- 74
2018-05-16 05:00:00 14.6 5 Noroeste 9 Noroeste 0 -- -- 75
2018-05-16 04:00:00 14.5 7 Oeste 13 Noroeste 0 -- -- 79
2018-05-16 03:00:00 14.3 5 Oeste 14 Oeste 0 -- -- 83
2018-05-16 02:00:00 14.7 11 Sudoeste 28 Sudoeste 0 -- -- 80
2018-05-16 01:00:00 14.7 15 Sudoeste 28 Sudoeste 0 -- -- 80
2018-05-16 00:00:00 14.8 15 Sudoeste 26 Sudoeste 0 -- -- 81
2018-05-15 23:00:00 14.7 8 Sudoeste 12 Sudoeste 0 -- -- 83
2018-05-15 22:00:00 14.9 5 Sudoeste 22 Nordeste 0 -- -- 79
2018-05-15 21:00:00 15.8 15 Nordeste 28 Este 0 -- -- 78
2018-05-15 20:00:00 17.4 15 Nordeste 33 Este 0 -- -- 67
2018-05-15 19:00:00 18.6 21 Este 37 Nordeste 0 -- -- 59
2018-05-15 18:00:00 19.4 22 Nordeste 36 Este 0 -- -- 64
2018-05-15 17:00:00 19.6 26 Nordeste 52 Nordeste 0 -- -- 65
2018-05-15 16:00:00 19.8 27 Nordeste 42 Este 0 -- -- 63
2018-05-15 15:00:00 19.8 28 Este 45 Nordeste 0 -- -- 62
2018-05-15 14:00:00 19.6 28 Nordeste 42 Este 0 -- -- 63
2018-05-15 13:00:00 19.4 24 Nordeste 45 Nordeste 0 -- -- 65
2018-05-15 12:00:00 18.9 30 Nordeste 43 Nordeste 0 -- -- 65
2018-05-15 11:00:00 18.4 27 Nordeste 43 Este 0 -- -- 69
2018-05-15 10:00:00 17.4 26 Nordeste 42 Nordeste 0 -- -- 69
2018-05-15 09:00:00 16.2 22 Nordeste 45 Nordeste 0 -- -- 71
2018-05-15 08:00:00 14.1 10 Nordeste 25 Nordeste 0 -- -- 74
2018-05-15 07:00:00 12.8 5 Norte 12 Noroeste 0 -- -- 69
2018-05-15 06:00:00 12.4 6 Noroeste 14 Nordeste 0 -- -- 64
2018-05-15 05:00:00 12.8 5 Noroeste 17 Nordeste 0 -- -- 57
2018-05-15 04:00:00 13.2 5 Norte 16 Nordeste 0 -- -- 59
2018-05-15 03:00:00 13.3 7 Nordeste 17 Nordeste 0 -- -- 59
2018-05-15 02:00:00 13.3 8 Norte 16 Nordeste 0 -- -- 58
2018-05-15 01:00:00 13.4 14 Nordeste 20 Nordeste 0 -- -- 64
2018-05-15 00:00:00 13.6 14 Nordeste 22 Nordeste 0 -- -- 69
2018-05-14 23:00:00 14 13 Nordeste 25 Nordeste 0 -- -- 69
2018-05-14 22:00:00 14.3 13 Nordeste 27 Nordeste 0 -- -- 73
2018-05-14 21:00:00 14.8 16 Nordeste 28 Nordeste 0 -- -- 78
2018-05-14 20:00:00 15.7 20 Nordeste 34 Nordeste 0 -- -- 75
2018-05-14 19:00:00 17.2 24 Nordeste 44 Nordeste 0 -- -- 70
2018-05-14 18:00:00 18.2 27 Nordeste 41 Este 0 -- -- 65
2018-05-14 17:00:00 19 24 Nordeste 47 Nordeste 0 -- -- 62
2018-05-14 16:00:00 19.5 25 Nordeste 42 Este 0 -- -- 59
2018-05-14 15:00:00 19.3 28 Nordeste 46 Este 0 -- -- 60
2018-05-14 14:00:00 19.2 30 Nordeste 48 Nordeste 0 -- -- 59
2018-05-14 13:00:00 18.8 31 Nordeste 46 Nordeste 0 -- -- 61
2018-05-14 12:00:00 18.2 28 Nordeste 46 Nordeste 0 -- -- 62
2018-05-14 11:00:00 17.5 30 Nordeste 43 Este 0 -- -- 62
2018-05-14 10:00:00 16.5 26 Nordeste 45 Nordeste 0 -- -- 64
2018-05-14 09:00:00 15.2 28 Nordeste 42 Nordeste 0 -- -- 67
2018-05-14 08:00:00 13.2 17 Nordeste 28 Nordeste 0 -- -- 72
2018-05-14 07:00:00 12.3 19 Nordeste 31 Nordeste 0 -- -- 79
2018-05-14 06:00:00 12 10 Nordeste 26 Nordeste 0 -- -- 78
2018-05-14 05:00:00 12.5 17 Nordeste 31 Nordeste 0 -- -- 78
2018-05-14 04:00:00 12.9 18 Nordeste 31 Nordeste 0 -- -- 80
2018-05-14 03:00:00 12.8 17 Nordeste 30 Nordeste 0 -- -- 81
2018-05-14 02:00:00 13 15 Nordeste 39 Nordeste 0 -- -- 80
2018-05-14 01:00:00 13 15 Nordeste 38 Nordeste 0 -- -- 81
2018-05-14 00:00:00 13.2 19 Nordeste 36 Nordeste 0 -- -- 81
2018-05-11 19:00:00 -- -- -- -- -- -- -- -- --
2018-05-11 18:00:00 17.5 26 Nordeste 48 Nordeste 0 -- -- 70
2018-05-11 17:00:00 18.9 27 Nordeste 46 Nordeste 0 -- -- 63
2018-05-11 16:00:00 18.8 31 Nordeste 50 Este 0 -- -- 60
2018-05-11 15:00:00 18.8 28 Nordeste 47 Nordeste 0 -- -- 62
2018-05-11 14:00:00 19.4 28 Nordeste 48 Este 0 -- -- 62
2018-05-11 13:00:00 19.1 30 Nordeste 51 Este 0 -- -- 58
2018-05-11 12:00:00 18.2 30 Nordeste 50 Nordeste 0 -- -- 61
2018-05-11 11:00:00 17.2 27 Nordeste 50 Nordeste 0 -- -- 65
2018-05-11 10:00:00 16.6 31 Nordeste 48 Nordeste 0 -- -- 65
2018-05-11 09:00:00 15.5 27 Nordeste 48 Nordeste 0 -- -- 68
2018-05-11 08:00:00 13.5 15 Nordeste 30 Nordeste 0 -- -- 76
2018-05-11 07:00:00 12.2 8 Nordeste 26 Nordeste 0 -- -- 82
2018-05-11 06:00:00 12.5 13 Nordeste 20 Norte 0 -- -- 83
2018-05-11 05:00:00 13.5 8 Sudoeste 14 Sudoeste 0 -- -- 80
2018-05-11 04:00:00 13.4 4 Norte 12 Oeste 0 -- -- 82
2018-05-11 03:00:00 13.9 8 Oeste 15 Oeste 0 -- -- 83
2018-05-11 02:00:00 14.5 9 Sudoeste 22 Sudoeste 0 -- -- 82
2018-05-11 01:00:00 14.9 12 Sudoeste 23 Sudoeste 0 -- -- 80
2018-05-11 00:00:00 14.9 5 Sudeste 16 Este 0 -- -- 81
2018-05-10 23:00:00 14.8 6 Nordeste 24 Nordeste 0 -- -- 83
2018-05-10 22:00:00 14.8 16 Nordeste 28 Este 0 -- -- 85
2018-05-10 21:00:00 15 18 Nordeste 28 Nordeste 0 -- -- 87
2018-05-10 20:00:00 15.3 18 Nordeste 28 Nordeste 0 -- -- 84
2018-05-10 19:00:00 15.5 15 Nordeste 30 Este 0 -- -- 83
2018-05-10 18:00:00 15.7 21 Nordeste 34 Este 0 -- -- 85
2018-05-10 17:00:00 15.6 17 Nordeste 31 Nordeste 0 -- -- 86
2018-05-10 16:00:00 16 21 Nordeste 37 Este 0 -- -- 82
2018-05-10 15:00:00 18 23 Nordeste 33 Este 0 -- -- 73
2018-05-10 14:00:00 20.1 22 Nordeste 38 Nordeste 0 -- -- 59
2018-05-10 13:00:00 20.5 27 Nordeste 44 Nordeste 0 -- -- 57
2018-05-10 12:00:00 19.5 28 Este 45 Nordeste 0 -- -- 58
2018-05-10 11:00:00 18.8 28 Nordeste 51 Este 0 -- -- 59
2018-05-10 10:00:00 18 28 Nordeste -- -- -- -- -- 64
2018-05-10 09:00:00 16.4 4 Norte 15 Noroeste 0 -- -- 72
2018-05-10 08:00:00 14 8 Noroeste 16 Noroeste 0 -- -- 80
2018-05-10 07:00:00 13.5 4 Norte 10 Noroeste 0 -- -- 84
2018-05-10 06:00:00 14.2 4 Noroeste 15 Este 0 -- -- 81
2018-05-10 05:00:00 14.6 5 Nordeste 15 Norte 0 -- -- 86
2018-05-10 04:00:00 14.1 7 Noroeste 15 Noroeste 0 -- -- 81
2018-05-10 03:00:00 14 7 Noroeste 20 Nordeste 0 -- -- 83
2018-05-10 02:00:00 15 10 Nordeste 20 Nordeste 0 -- -- 82
2018-05-10 01:00:00 15 11 Nordeste 28 Nordeste 0 -- -- 81
2018-05-10 00:00:00 15.3 13 Nordeste 26 Norte 0 -- -- 85
2018-05-09 23:00:00 15.3 13 Nordeste 30 Nordeste 0 -- -- 89
2018-05-09 22:00:00 15.3 19 Nordeste 33 Nordeste 0 -- -- 91
2018-05-09 21:00:00 15.5 19 Nordeste 41 Nordeste 0 -- -- 90
2018-05-09 20:00:00 15.9 21 Nordeste 42 Nordeste 0 -- -- 86
2018-05-09 19:00:00 16.7 22 Nordeste 37 Este 0 -- -- 82
2018-05-09 18:00:00 17.5 20 Nordeste 36 Nordeste 0 -- -- 78
2018-05-09 17:00:00 18.1 21 Nordeste 35 Este 0 -- -- 71
2018-05-09 16:00:00 18.9 21 Nordeste 35 Este 0 -- -- 72
2018-05-09 15:00:00 19.9 27 Nordeste 47 Nordeste 0 -- -- 65
2018-05-09 14:00:00 19 28 Nordeste 45 Este 0 -- -- 68
2018-05-09 13:00:00 19.9 24 Nordeste 60 Nordeste 0 -- -- 69
2018-05-09 12:00:00 19.7 22 Este 34 Este 0 -- -- 70
2018-05-09 11:00:00 19.1 8 Sur 21 Sur 0 -- -- 68
2018-05-09 10:00:00 17 8 Sur 15 Sur 0 -- -- 73
2018-05-09 09:00:00 16.3 3 Sudeste 14 Oeste 0 -- -- 76
2018-05-09 08:00:00 13.6 7 Sudoeste 15 Oeste 0 -- -- 81
2018-05-09 07:00:00 12.9 12 Oeste 15 Oeste 0 -- -- 79
2018-05-09 06:00:00 13.7 8 Oeste 15 Oeste 0 -- -- 82
2018-05-09 05:00:00 13.1 11 Oeste 15 Noroeste 0 -- -- 82
2018-05-09 04:00:00 13.1 9 Noroeste 14 Noroeste 0 -- -- 84
2018-05-09 03:00:00 13.4 9 Noroeste 12 Noroeste 0 -- -- 80
2018-05-09 02:00:00 13.4 8 Noroeste 13 Noroeste 0 -- -- 83
2018-05-09 01:00:00 14.3 9 Oeste 13 Oeste 0 -- -- 85
2018-05-09 00:00:00 14.7 4 Noroeste 9 Noroeste 0 -- -- 82
2018-05-08 23:00:00 14.8 8 Oeste 14 Oeste 0 -- -- 83
2018-05-08 22:00:00 15.3 11 Oeste 18 Sudoeste 0 -- -- 86
2018-05-08 21:00:00 15.4 5 Noroeste 23 Sudoeste 0 -- -- 86
2018-05-08 20:00:00 16.3 12 Sudoeste 28 Oeste 0 -- -- 82
2018-05-08 19:00:00 16.6 6 Sur 15 Este 0 -- -- 81
2018-05-08 18:00:00 16.6 8 Este 18 Este 0 -- -- 79
2018-05-08 17:00:00 16.5 8 Nordeste 21 Este 0 -- -- 81
2018-05-08 16:00:00 16.1 12 Nordeste 26 Este 0 -- -- 82
2018-05-08 15:00:00 16.5 14 Nordeste 25 Este 0 -- -- 81
2018-05-08 14:00:00 16.1 15 Este 28 Este 0 -- -- 83
2018-05-08 13:00:00 16.8 14 Este 27 Nordeste 0 -- -- 77
2018-05-08 12:00:00 17.4 13 Este 25 Este 0 -- -- 73
2018-05-08 11:00:00 17 13 Nordeste 23 Este 0 -- -- 75
2018-05-08 10:00:00 18.3 7 Sudeste 14 Este 0 -- -- 69
2018-05-08 09:00:00 14.5 4 Nordeste 16 Noroeste 0 -- -- 73
2018-05-08 08:00:00 13.2 14 Noroeste 18 Noroeste 0 -- -- 75
2018-05-08 07:00:00 13.1 14 Noroeste 21 Noroeste 0 -- -- 74
2018-05-08 06:00:00 13.6 11 Noroeste 20 Oeste 0 -- -- 73
2018-05-08 05:00:00 13.8 15 Noroeste 22 Oeste 0 -- -- 73
2018-05-08 04:00:00 13.7 12 Noroeste 22 Noroeste 0 -- -- 76
2018-05-08 03:00:00 13.4 11 Noroeste 16 Noroeste 0 -- -- 80
2018-05-08 02:00:00 13 12 Noroeste 16 Noroeste 0 -- -- 82
2018-05-08 01:00:00 13.2 12 Noroeste 16 Noroeste 0 -- -- 83
2018-05-08 00:00:00 13.5 10 Oeste 14 Oeste 0 -- -- 83
2018-05-07 23:00:00 13.2 11 Oeste 16 Oeste 0 -- -- 84
2018-05-07 22:00:00 13.5 6 Oeste 12 Oeste 0 -- -- 84
2018-05-07 21:00:00 14.5 5 Sudoeste 17 Oeste 0 -- -- 81
2018-05-07 20:00:00 14.6 17 Oeste 23 Oeste 0 -- -- 83
2018-05-07 19:00:00 14.1 15 Oeste 22 Oeste 0 -- -- 89
2018-05-07 18:00:00 14.3 8 Noroeste 13 Noroeste 0 -- -- 92
2018-05-07 17:00:00 15 7 Este 15 Este 0 -- -- 89
2018-05-07 16:00:00 15.7 9 Este 19 Este 0 -- -- 82
2018-05-07 15:00:00 15.8 11 Este 19 Este 0 -- -- 80
2018-05-07 14:00:00 15.8 12 Nordeste 19 Nordeste 0 -- -- 83
2018-05-07 13:00:00 17 7 Este 17 Nordeste 0 -- -- 74
2018-05-07 12:00:00 16.9 9 Este 15 Este 0 -- -- 76
2018-05-07 11:00:00 17.3 6 Sudeste 11 Sudeste 0 -- -- 75
2018-05-07 10:00:00 15.9 8 Sur 19 Sudoeste 0 -- -- 76
2018-05-07 09:00:00 14.9 8 Sudoeste 13 Sudoeste 0 -- -- 77
2018-05-07 08:00:00 13.3 5 Oeste 12 Oeste 0 -- -- 77
2018-05-07 07:00:00 13.2 8 Oeste 10 Oeste 0 -- -- 78
2018-05-07 06:00:00 13.2 9 Noroeste 13 Noroeste 0 -- -- 79
2018-05-07 05:00:00 12.9 7 Noroeste 13 Norte 0 -- -- 78
2018-05-07 04:00:00 13.1 8 Oeste 18 Oeste 0 -- -- 74
2018-05-07 03:00:00 13.2 5 Noroeste 12 Oeste 0 -- -- 80
2018-05-07 02:00:00 13.1 9 Oeste 12 Oeste 0 -- -- 84
2018-05-07 01:00:00 13.3 3 Oeste 7 Oeste 0 -- -- 85
2018-05-07 00:00:00 13.9 4 Noroeste 5 Noroeste 0 -- -- 85
2018-05-06 23:00:00 14 4 Noroeste 9 Noroeste 0 -- -- 86
2018-05-06 22:00:00 14.2 4 Noroeste 6 Noroeste 0 -- -- 86
2018-05-06 21:00:00 14.6 0 Calma 6 Sur 0 -- -- 82
2018-05-06 20:00:00 15.2 4 Sur 12 Sur 0 -- -- 80
2018-05-06 19:00:00 15.4 2 Noroeste 11 Noroeste 0 -- -- 80
2018-05-06 18:00:00 15.1 5 Noroeste 9 Noroeste 0 -- -- 84
2018-05-06 17:00:00 15.1 3 Sur 12 Noroeste 0 -- -- 84
2018-05-06 16:00:00 14.2 8 Noroeste 12 Noroeste 0 -- -- 91
2018-05-06 15:00:00 14.8 4 Noroeste 6 Oeste 0 -- -- 90
2018-05-06 14:00:00 14.8 3 Sur 9 Sur 0 -- -- 90
2018-05-06 13:00:00 15.5 4 Sudeste 9 Sudeste 0 -- -- 81
2018-05-06 12:00:00 15.4 2 Sudoeste 8 Sur 0 -- -- 82
2018-05-06 11:00:00 14.9 5 Este 9 Nordeste 0 -- -- 87
2018-05-06 10:00:00 15.1 2 Este 12 Sudeste 0 -- -- 82
2018-05-06 09:00:00 15 5 Sur 16 Sudoeste 0 -- -- 83
2018-05-06 08:00:00 12.4 14 Oeste 17 Oeste 0 -- -- 86
2018-05-06 07:00:00 12.4 9 Oeste 14 Noroeste 0 -- -- 88
2018-05-06 06:00:00 13.1 10 Oeste 14 Sudoeste 0 -- -- 89
2018-05-06 05:00:00 13.1 8 Oeste 16 Oeste 0 -- -- 90
2018-05-06 04:00:00 12.9 13 Oeste 17 Oeste 0 -- -- 89
2018-05-06 03:00:00 13.2 8 Oeste 16 Noroeste 0 -- -- 84
2018-05-06 02:00:00 12.8 13 Oeste 18 Oeste 0 -- -- 85
2018-05-06 01:00:00 13.2 15 Oeste 20 Oeste 0 -- -- 84
2018-05-06 00:00:00 13.3 13 Oeste 18 Sudoeste 0 -- -- 88
2018-05-05 23:00:00 13.5 10 Oeste 14 Oeste 0 -- -- 86
2018-05-05 22:00:00 13.8 9 Oeste 13 Oeste 0 -- -- 86
2018-05-05 21:00:00 13.5 9 Oeste 14 Oeste 0 -- -- 87
2018-05-05 20:00:00 13.4 9 Noroeste 12 Noroeste 0 -- -- 89
2018-05-05 19:00:00 13.8 6 Noroeste 13 Noroeste 0 -- -- 88
2018-05-05 18:00:00 14 5 Noroeste 10 Oeste 0 -- -- 90
2018-05-05 17:00:00 14.4 4 Oeste 17 Este 0 -- -- 85
2018-05-05 16:00:00 15.2 11 Sudeste 22 Sudeste 0 -- -- 77
2018-05-05 15:00:00 15.9 11 Sudeste 22 Sur 0 -- -- 72
2018-05-05 14:00:00 16.4 10 Este 23 Este 0 -- -- 67
2018-05-05 13:00:00 15.9 13 Este 23 Este 0 -- -- 70
2018-05-05 12:00:00 15.3 10 Este 21 Este 0 -- -- 74
2018-05-05 11:00:00 15.4 12 Este 22 Este 0 -- -- 73
2018-05-05 10:00:00 15.1 13 Este 24 Este 0 -- -- 72
2018-05-05 09:00:00 14.9 5 Nordeste 12 Nordeste 0 -- -- 74
2018-05-05 08:00:00 13.8 12 Este 17 Este 0 -- -- 78
2018-05-05 07:00:00 13.9 4 Sudoeste 8 Nordeste 0 -- -- 78
2018-05-05 06:00:00 14 2 Nordeste 18 Este 0 -- -- 81
2018-05-05 05:00:00 14.1 7 Nordeste 15 Nordeste 0 -- -- 81
2018-05-05 04:00:00 14.3 6 Este 15 Este 0 -- -- 83
2018-05-05 03:00:00 14.4 8 Nordeste 20 Este 0 -- -- 81
2018-05-05 02:00:00 14.4 10 Este 24 Este 0 -- -- 89
2018-05-05 01:00:00 14.6 12 Este 21 Este 0 -- -- 91
2018-05-05 00:00:00 14.8 3 Este 25 Este 0 -- -- 85
2018-05-04 23:00:00 14.9 9 Este 24 Nordeste 0 -- -- 86
2018-05-04 22:00:00 15.1 12 Este 20 Este 0 -- -- 84
2018-05-04 21:00:00 15.3 11 Nordeste 29 Este 0 -- -- 81
2018-05-04 20:00:00 15.5 18 Nordeste 29 Este 0 -- -- 80
2018-05-04 19:00:00 16 18 Nordeste 31 Este 0 -- -- 77
2018-05-04 18:00:00 16.8 15 Nordeste 35 Nordeste 0 -- -- 73
2018-05-04 17:00:00 16.9 20 Nordeste 36 Este 0 -- -- 75
2018-05-04 16:00:00 17.3 24 Nordeste 37 Este 0 -- -- 76
2018-05-04 15:00:00 17.7 23 Nordeste 40 Este 0 -- -- 69
2018-05-04 14:00:00 18.9 23 Nordeste 42 Nordeste 0 -- -- 66
2018-05-04 13:00:00 18.6 26 Nordeste 44 Nordeste 0 -- -- 67
2018-05-04 12:00:00 18.8 23 Nordeste 44 Este 0 -- -- 64
2018-05-04 11:00:00 16.7 22 Nordeste 38 Este 0 -- -- 70
2018-05-04 10:00:00 16.9 19 Este 32 Este 0 -- -- 76
2018-05-04 09:00:00 15 9 Nordeste 17 Este 0 -- -- 67
2018-05-04 08:00:00 12.9 10 Noroeste 17 Noroeste 0 -- -- 73
2018-05-04 07:00:00 12.9 8 Noroeste 21 Noroeste 0 -- -- 72
2018-05-04 06:00:00 12.4 11 Noroeste 14 Noroeste 0 -- -- 79
2018-05-04 05:00:00 13 6 Noroeste 13 Noroeste 0 -- -- 78
2018-05-04 04:00:00 13.2 6 Norte 18 Oeste 0 -- -- 75
2018-05-04 03:00:00 13.3 10 Noroeste 13 Noroeste 0 -- -- 77
2018-05-04 02:00:00 13.6 6 Norte 18 Oeste 0 -- -- 79
2018-05-04 01:00:00 14.4 15 Oeste 20 Oeste 0 -- -- 83
2018-05-04 00:00:00 14.2 5 Noroeste 14 Sudoeste 0 -- -- 84
2018-05-03 23:00:00 14.2 8 Oeste 15 Noroeste 0 -- -- 85
2018-05-03 22:00:00 14.7 7 Sudoeste 17 Oeste 0 -- -- 86
2018-05-03 21:00:00 15.2 12 Sudoeste 21 Oeste 0 -- -- 82
2018-05-03 20:00:00 16.6 8 Sudoeste 22 Nordeste 0 -- -- 76
2018-05-03 19:00:00 17.2 5 Este 28 Este 0 -- -- 73
2018-05-03 18:00:00 17.1 12 Este 24 Este 0 -- -- 77
2018-05-03 17:00:00 18.1 10 Este 22 Este 0 -- -- 73
2018-05-03 16:00:00 17.3 15 Nordeste 26 Este 0 -- -- 70
2018-05-03 15:00:00 17.4 10 Nordeste 20 Este 0 -- -- 70
2018-05-03 14:00:00 17.3 8 Este 17 Este 0 -- -- 68
2018-05-03 13:00:00 17.9 6 Sudeste 13 Este 0 -- -- 70
2018-05-03 12:00:00 17.2 6 Sudeste 17 Este 0 -- -- 72
2018-05-03 11:00:00 18.4 9 Sudeste 18 Sur 0 -- -- 70
2018-05-03 10:00:00 16.3 10 Este 17 Este 0 -- -- 82
2018-05-03 09:00:00 15 5 Sudoeste 9 Oeste 0 -- -- 83
2018-05-03 08:00:00 13.6 5 Noroeste 8 Noroeste 0 -- -- 84
2018-05-03 07:00:00 13.4 3 Noroeste 9 Oeste 0 -- -- 84
2018-05-03 06:00:00 12.9 7 Noroeste 14 Noroeste 0 -- -- 84
2018-05-03 05:00:00 12.6 8 Oeste 12 Noroeste 0 -- -- 84
2018-05-03 04:00:00 13.5 9 Oeste 13 Oeste 0 -- -- 84
2018-05-03 03:00:00 13.2 11 Oeste 14 Oeste 0 -- -- 85
2018-05-03 02:00:00 13.3 8 Noroeste 11 Noroeste 0 -- -- 84
2018-05-03 01:00:00 13.5 6 Noroeste 10 Noroeste 0 -- -- 83
2018-05-03 00:00:00 13.6 9 Noroeste 13 Noroeste 0 -- -- 83
2018-05-02 23:00:00 13.2 7 Noroeste 10 Norte 0 -- -- 85
2018-05-02 22:00:00 14.1 5 Norte 7 Noroeste 0 -- -- 94
2018-05-02 21:00:00 14.8 4 Nordeste 6 Nordeste 0 -- -- 93
2018-05-02 20:00:00 15.7 3 Sudeste 8 Sur 0 -- -- 90
2018-05-02 19:00:00 16.1 3 Norte 8 Este 0 -- -- 86
2018-05-02 18:00:00 15.3 5 Sudoeste 12 Sur 0.4 -- -- 93
2018-05-02 17:00:00 15.1 6 Sur 15 Sur 0.4 -- -- 93
2018-05-02 16:00:00 15.7 10 Sur 14 Sur 0 -- -- 88
2018-05-02 15:00:00 15 8 Sudoeste 18 Sur 0.2 -- -- 91
2018-05-02 14:00:00 15.7 11 Sur 18 Sur 0 -- -- 80
2018-05-02 13:00:00 16 10 Sur 19 Sudeste 0 -- -- 76
2018-05-02 12:00:00 16.8 11 Sur 22 Sudeste 0 -- -- 72
2018-05-02 11:00:00 18 14 Sur 26 Sur 0 -- -- 69
2018-05-02 10:00:00 16.1 12 Sudoeste 26 Sudoeste 0 -- -- 75
2018-05-02 09:00:00 14.9 18 Sudoeste 26 Sudoeste 0 -- -- 79
2018-05-02 08:00:00 12.9 16 Oeste 24 Oeste 0 -- -- 81
2018-05-02 07:00:00 12.6 16 Oeste 22 Sudoeste 0 -- -- 81
2018-05-02 06:00:00 12.7 18 Oeste 25 Sudoeste 0 -- -- 81
2018-05-02 05:00:00 12.8 15 Oeste 20 Oeste 0 -- -- 81
2018-05-02 04:00:00 13.5 10 Sudoeste 15 Sudoeste 0 -- -- 81
2018-05-02 03:00:00 13.8 4 Oeste 14 Este 0 -- -- 81
2018-05-02 02:00:00 13.8 3 Sudeste 12 Este 0 -- -- 82
2018-05-02 01:00:00 13.6 2 Norte 8 Sudeste 0 -- -- 82
2018-05-02 00:00:00 14.1 4 Nordeste 12 Este 0 -- -- 78
2018-05-01 23:00:00 14.1 4 Sudoeste 5 Sudoeste 0 -- -- 80
2018-05-01 22:00:00 13.9 2 Este 13 Sudoeste 0 -- -- 78
2018-05-01 21:00:00 14.7 6 Sudoeste 15 Sudoeste 0 -- -- 77
2018-05-01 20:00:00 15.8 9 Sudeste 18 Este 0 -- -- 72
2018-05-01 19:00:00 16.4 9 Este 20 Nordeste 0 -- -- 71
2018-05-01 18:00:00 16.7 11 Nordeste 19 Nordeste 0 -- -- 71
2018-05-01 17:00:00 17.2 11 Este 19 Este 0 -- -- 70
2018-05-01 16:00:00 17.1 12 Este 29 Este 0 -- -- 71
2018-05-01 15:00:00 18.5 15 Este 29 Este 0 -- -- 64
2018-05-01 14:00:00 17.3 13 Este 29 Este 0 -- -- 68
2018-05-01 13:00:00 17.4 14 Este 29 Este 0 -- -- 64
2018-05-01 12:00:00 17.4 7 Sur 23 Sur 0 -- -- 60
2018-05-01 11:00:00 17.8 9 Sur 22 Sur 0 -- -- 59
2018-05-01 10:00:00 17 6 Sudoeste 17 Sur 0 -- -- 60
2018-05-01 09:00:00 15.4 7 Sur 12 Sudoeste 0 -- -- 66
2018-05-01 08:00:00 12.7 8 Noroeste 14 Oeste 0 -- -- 69
2018-05-01 07:00:00 11.6 6 Noroeste 15 Noroeste 0 -- -- 72
2018-05-01 06:00:00 11.5 11 Noroeste 18 Noroeste 0 -- -- 74
2018-05-01 05:00:00 11.8 9 Noroeste 15 Noroeste 0 -- -- 73
2018-05-01 04:00:00 11.9 10 Noroeste 18 Noroeste 0 -- -- 73
2018-05-01 03:00:00 12.2 10 Noroeste 18 Noroeste 0 -- -- 76
2018-05-01 02:00:00 12.4 9 Noroeste 15 Oeste 0 -- -- 75
2018-05-01 01:00:00 12.5 10 Noroeste 18 Oeste 0 -- -- 75
2018-05-01 00:00:00 12.6 11 Noroeste 20 Noroeste 0 -- -- 74
2018-04-30 23:00:00 12.9 13 Oeste 16 Oeste 0 -- -- 76
2018-04-30 22:00:00 12.9 8 Oeste 17 Este 0 -- -- 76
2018-04-30 21:00:00 13.9 4 Sudeste 26 Este 0 -- -- 70
2018-04-30 20:00:00 14.9 11 Sudeste 27 Este 0 -- -- 69
2018-04-30 19:00:00 15.2 12 Nordeste 26 Nordeste 0 -- -- 69
2018-04-30 18:00:00 14.8 14 Este 24 Nordeste 0 -- -- 72
2018-04-30 17:00:00 14.3 14 Nordeste 28 Este 0 -- -- 75
2018-04-30 16:00:00 14.5 14 Nordeste 27 Este 0 -- -- 73
2018-04-30 15:00:00 14.9 16 Este 35 Nordeste 0 -- -- 69
2018-04-30 14:00:00 15.5 21 Nordeste 39 Este 0 -- -- 66
2018-04-30 13:00:00 18.3 24 Este 39 Este 0 -- -- 55
2018-04-30 12:00:00 16.5 24 Nordeste 39 Este 0 -- -- 61
2018-04-30 11:00:00 16.5 21 Este 36 Nordeste 0 -- -- 61
2018-04-30 10:00:00 16.6 10 Norte 20 Este 0 -- -- 55
2018-04-30 09:00:00 14.5 6 Nordeste 14 Norte 0 -- -- 63
2018-04-30 08:00:00 11.3 8 Noroeste 12 Oeste 0 -- -- 72
2018-04-30 07:00:00 11.1 7 Norte 15 Norte 0 -- -- 74
2018-04-30 06:00:00 11.1 7 Noroeste 14 Noroeste 0 -- -- 70
2018-04-30 05:00:00 11.7 6 Sudoeste 17 Oeste 0 -- -- 76
2018-04-30 04:00:00 12.1 6 Oeste 15 Este 0 -- -- 76
2018-04-30 03:00:00 12 5 Nordeste 17 Norte 0 -- -- 75
2018-04-30 02:00:00 11.7 4 Noroeste 11 Noroeste 0 -- -- 73
2018-04-30 01:00:00 11.6 8 Noroeste 11 Noroeste 0 -- -- 70
2018-04-30 00:00:00 12.3 4 Oeste 12 Oeste 0 -- -- 76
2018-04-29 23:00:00 13.3 10 Este 24 Este 0 -- -- 73
2018-04-29 22:00:00 13.3 14 Nordeste 28 Este 0 -- -- 72
2018-04-29 21:00:00 13.6 13 Nordeste 32 Nordeste 0 -- -- 69
2018-04-29 20:00:00 14.4 17 Nordeste 32 Este 0 -- -- 69
2018-04-29 19:00:00 15.7 21 Nordeste 39 Este 0 -- -- 67
2018-04-29 18:00:00 17.1 24 Nordeste 41 Nordeste 0 -- -- 57
2018-04-29 17:00:00 17.4 26 Nordeste 42 Nordeste 0 -- -- 58
2018-04-29 16:00:00 18.1 26 Nordeste 42 Este 0 -- -- 56
2018-04-29 15:00:00 18.4 26 Este 45 Este 0 -- -- 53
2018-04-29 14:00:00 18.7 25 Nordeste 49 Este 0 -- -- 53
2018-04-29 13:00:00 17.9 28 Nordeste 49 Nordeste 0 -- -- 54
2018-04-29 12:00:00 17.2 32 Nordeste 48 Este 0 -- -- 58
2018-04-29 11:00:00 17 27 Nordeste 44 Este 0 -- -- 64
2018-04-29 10:00:00 16 26 Nordeste 39 Nordeste 0 -- -- 56
2018-04-29 09:00:00 14.9 18 Nordeste 35 Nordeste 0 -- -- 66
2018-04-29 08:00:00 12.4 8 Nordeste 22 Nordeste 0 -- -- 73
2018-04-29 07:00:00 12 10 Norte 27 Nordeste 0 -- -- 77
2018-04-29 06:00:00 13.2 16 Nordeste 29 Nordeste 0 -- -- 73
2018-04-29 05:00:00 13.3 18 Nordeste 31 Este 0 -- -- 73
2018-04-29 04:00:00 13.5 16 Nordeste 31 Nordeste 0 -- -- 76
2018-04-29 03:00:00 13.8 21 Nordeste 39 Nordeste 0 -- -- 77
2018-04-29 02:00:00 14.2 20 Nordeste 45 Nordeste 0 -- -- 81
2018-04-29 01:00:00 14.4 27 Nordeste 46 Nordeste 0 -- -- 85
2018-04-29 00:00:00 14.6 22 Nordeste 38 Nordeste 0 -- -- 91
2018-04-28 23:00:00 14.7 4 Noroeste 10 Noroeste 0 -- -- 81
2018-04-28 22:00:00 15.4 4 Sudoeste 18 Este 0 -- -- 81
2018-04-28 21:00:00 16.3 4 Sudeste 13 Este 0 -- -- 75
2018-04-28 20:00:00 17.5 10 Este 19 Este 0 -- -- 67
2018-04-28 19:00:00 19.4 15 Sudoeste 27 Sudoeste 0 -- -- 61
2018-04-28 18:00:00 20.2 14 Sur 27 Sudeste 0 -- -- 59
2018-04-28 17:00:00 20.3 15 Sudeste 34 Este 0 -- -- 61
2018-04-28 16:00:00 21.1 17 Sudeste 30 Este 0 -- -- 60
2018-04-28 15:00:00 20.5 18 Este 31 Este 0 -- -- 62
2018-04-28 14:00:00 20.3 19 Este 31 Este 0 -- -- 63
2018-04-28 13:00:00 20.9 20 Este 33 Este 0 -- -- 57
2018-04-28 12:00:00 21.2 12 Este 29 Sudoeste 0 -- -- 55
2018-04-28 11:00:00 19.1 15 Sur 30 Sur 0 -- -- 63
2018-04-28 10:00:00 17.5 19 Sur 26 Sur 0 -- -- 66
2018-04-28 09:00:00 16 15 Sudoeste 29 Sudoeste 0 -- -- 65
2018-04-28 08:00:00 14 18 Oeste 23 Oeste 0 -- -- 57
2018-04-28 07:00:00 13 14 Oeste 17 Oeste 0 -- -- 65
2018-04-28 06:00:00 13.1 4 Nordeste 13 Norte 0 -- -- 65
2018-04-28 05:00:00 13.1 6 Norte 14 Nordeste 0 -- -- 64
2018-04-28 04:00:00 13.2 7 Nordeste 14 Nordeste 0 -- -- 65
2018-04-28 03:00:00 13.1 6 Norte 11 Nordeste 0 -- -- 73
2018-04-28 02:00:00 13.4 3 Noroeste 7 Oeste 0 -- -- 78
2018-04-28 01:00:00 13.8 3 Sudoeste 11 Nordeste 0 -- -- 76
2018-04-28 00:00:00 13.9 3 Norte 10 Nordeste 0 -- -- 74